createdAt,value
2019-03-27T00:00:59.447Z,103238.69
2019-03-27T00:03:51.678Z,103243.92
2019-03-27T00:06:44.851Z,103248.22
2019-03-27T00:09:37.699Z,103243.53
2019-03-27T00:12:30.096Z,103240.16
2019-03-27T00:15:22.574Z,103242.72
2019-03-27T00:18:15.045Z,103241.12
2019-03-27T00:21:07.339Z,103240.16
2019-03-27T00:23:59.666Z,103240.30
2019-03-27T00:26:51.982Z,103238.25
2019-03-27T00:29:44.199Z,103234.65
2019-03-27T00:32:36.664Z,103238.86
2019-03-27T00:35:28.782Z,103239.42
2019-03-27T00:38:21.587Z,103235.52
2019-03-27T00:41:13.956Z,103220.78
2019-03-27T00:44:06.167Z,103220.77
2019-03-27T00:46:58.562Z,103225.22
2019-03-27T00:49:51.391Z,103222.94
2019-03-27T00:52:43.811Z,103222.84
2019-03-27T00:55:36.178Z,103227.05
2019-03-27T00:58:28.398Z,103227.69
2019-03-27T01:01:20.991Z,103224.15
2019-03-27T01:04:13.651Z,103230.70
2019-03-27T01:07:07.052Z,103231.02
2019-03-27T01:09:59.433Z,103234.16
2019-03-27T01:12:51.880Z,103227.90
2019-03-27T01:15:44.091Z,103222.78
2019-03-27T01:18:36.578Z,103221.17
2019-03-27T01:21:30.433Z,103220.91
2019-03-27T01:24:22.610Z,103223.08
2019-03-27T01:27:14.736Z,103221.33
2019-03-27T01:30:07.962Z,103217.74
2019-03-27T01:33:00.104Z,103221.11
2019-03-27T01:35:52.425Z,103221.05
2019-03-27T01:38:44.803Z,103215.28
2019-03-27T01:41:37.435Z,103220.91
2019-03-27T01:44:29.644Z,103223.02
2019-03-27T01:47:22.079Z,103220.63
2019-03-27T01:50:15.059Z,103217.17
2019-03-27T01:53:07.249Z,103214.48
2019-03-27T01:56:00.258Z,103217.15
2019-03-27T01:58:52.357Z,103214.88
2019-03-27T02:01:44.395Z,103218.53
2019-03-27T02:04:37.576Z,103225.91
2019-03-27T02:07:30.026Z,103216.71
2019-03-27T02:10:22.867Z,103220.73
2019-03-27T02:13:15.122Z,103217.30
2019-03-27T02:16:07.592Z,103210.38
2019-03-27T02:19:01.464Z,103211.44
2019-03-27T02:21:54.043Z,103209.97
2019-03-27T02:24:46.530Z,103209.69
2019-03-27T02:27:38.730Z,103204.52
2019-03-27T02:30:31.287Z,103199.95
2019-03-27T02:33:23.779Z,103206.05
2019-03-27T02:36:16.204Z,103216.83
2019-03-27T02:39:08.895Z,103212.98
2019-03-27T02:42:01.412Z,103207.34
2019-03-27T02:44:53.577Z,103199.56
2019-03-27T02:47:45.837Z,103202.69
2019-03-27T02:50:38.275Z,103206.55
2019-03-27T02:53:30.414Z,103208.36
2019-03-27T02:56:22.811Z,103209.20
2019-03-27T02:59:15.112Z,103206.52
2019-03-27T03:02:07.678Z,103207.17
2019-03-27T03:05:00.016Z,103210.06
2019-03-27T03:07:52.497Z,103208.70
2019-03-27T03:10:45.921Z,103203.73
2019-03-27T03:13:39.044Z,103201.42
2019-03-27T03:16:42.159Z,103202.43
2019-03-27T03:19:25.956Z,103195.45
2019-03-27T03:22:18.571Z,103211.14
2019-03-27T03:25:11.078Z,103208.44
2019-03-27T03:28:03.405Z,103204.78
2019-03-27T03:30:55.524Z,103205.11
2019-03-27T03:33:48.015Z,103206.67
2019-03-27T03:36:40.519Z,103212.41
2019-03-27T03:39:32.950Z,103209.80
2019-03-27T03:42:25.740Z,103213.62
2019-03-27T03:45:18.721Z,103217.78
2019-03-27T03:48:11.281Z,103221.44
2019-03-27T03:51:05.170Z,103223.81
2019-03-27T03:53:57.741Z,103221.59
2019-03-27T03:56:53.406Z,103228.18
2019-03-27T03:59:47.117Z,103222.86
2019-03-27T04:02:39.707Z,103232.63
2019-03-27T04:05:32.278Z,103230.75
2019-03-27T04:08:24.756Z,103231.78
2019-03-27T04:11:17.244Z,103231.01
2019-03-27T04:14:09.387Z,103232.42
2019-03-27T04:17:16.069Z,103221.52
2019-03-27T04:19:55.792Z,103224.42
2019-03-27T04:22:48.250Z,103225.30
2019-03-27T04:26:07.056Z,103225.30
2019-03-27T04:28:34.397Z,103222.52
2019-03-27T04:31:26.850Z,103222.38
2019-03-27T04:34:19.222Z,103223.95
2019-03-27T04:37:11.656Z,103228.09
2019-03-27T04:40:03.809Z,103233.17
2019-03-27T04:42:56.726Z,103229.05
2019-03-27T04:45:49.679Z,103230.00
2019-03-27T04:48:43.033Z,103238.33
2019-03-27T04:51:35.307Z,103234.57
2019-03-27T04:54:27.797Z,103239.77
2019-03-27T04:57:20.819Z,103243.45
2019-03-27T05:00:13.830Z,103240.92
2019-03-27T05:03:06.335Z,103239.13
2019-03-27T05:05:58.503Z,103236.07
2019-03-27T05:08:50.592Z,103241.87
2019-03-27T05:11:43.068Z,103237.52
2019-03-27T05:14:35.887Z,103252.25
2019-03-27T05:17:28.387Z,103257.64
2019-03-27T05:20:20.708Z,103246.23
2019-03-27T05:23:13.141Z,103258.20
2019-03-27T05:26:05.350Z,103263.98
2019-03-27T05:28:57.536Z,103262.74
2019-03-27T05:31:49.910Z,103262.58
2019-03-27T05:34:42.674Z,103262.56
2019-03-27T05:37:34.872Z,103266.34
2019-03-27T05:40:27.247Z,103269.72
2019-03-27T05:43:19.618Z,103269.41
2019-03-27T05:46:12.464Z,103276.63
2019-03-27T05:49:04.590Z,103282.25
2019-03-27T05:51:56.828Z,103283.85
2019-03-27T05:54:49.371Z,103276.97
2019-03-27T05:57:41.839Z,103284.47
2019-03-27T06:00:34.907Z,103288.13
2019-03-27T06:03:27.445Z,103289.38
2019-03-27T06:06:20.102Z,103286.91
2019-03-27T06:09:12.549Z,103283.78
2019-03-27T06:12:05.041Z,103279.99
2019-03-27T06:14:57.642Z,103284.88
2019-03-27T06:17:49.794Z,103281.92
2019-03-27T06:20:42.677Z,103282.33
2019-03-27T06:23:35.212Z,103286.08
2019-03-27T06:26:27.546Z,103282.16
2019-03-27T06:29:20.422Z,103278.25
2019-03-27T06:32:12.796Z,103270.87
2019-03-27T06:35:05.484Z,103268.58
2019-03-27T06:37:57.791Z,103281.06
2019-03-27T06:40:50.247Z,103275.48
2019-03-27T06:43:42.727Z,103275.83
2019-03-27T06:46:35.097Z,103275.30
2019-03-27T06:49:27.438Z,103274.44
2019-03-27T06:52:20.417Z,103280.00
2019-03-27T06:55:12.812Z,103280.78
2019-03-27T06:58:05.321Z,103279.61
2019-03-27T07:00:57.517Z,103283.19
2019-03-27T07:03:49.850Z,103279.80
2019-03-27T07:06:43.007Z,103283.98
2019-03-27T07:09:35.170Z,103282.73
2019-03-27T07:12:27.625Z,103284.91
2019-03-27T07:15:20.142Z,103290.18
2019-03-27T07:18:13.233Z,103291.27
2019-03-27T07:21:05.306Z,103295.88
2019-03-27T07:23:57.662Z,103296.05
2019-03-27T07:26:50.103Z,103295.00
2019-03-27T07:29:42.584Z,103299.79
2019-03-27T07:32:35.085Z,103308.74
2019-03-27T07:35:27.933Z,103301.11
2019-03-27T07:38:20.204Z,103304.67
2019-03-27T07:41:13.392Z,103308.05
2019-03-27T07:44:05.789Z,103307.59
2019-03-27T07:46:57.952Z,103305.71
2019-03-27T07:49:50.260Z,103307.34
2019-03-27T07:52:42.919Z,103309.61
2019-03-27T07:55:35.294Z,103298.68
2019-03-27T07:58:27.726Z,103303.41
2019-03-27T08:01:21.013Z,103305.97
2019-03-27T08:04:14.540Z,103303.94
2019-03-27T08:07:07.449Z,103298.66
2019-03-27T08:10:00.431Z,103301.94
2019-03-27T08:12:52.876Z,103298.30
2019-03-27T08:15:45.074Z,103304.52
2019-03-27T08:18:37.304Z,103304.02
2019-03-27T08:21:31.311Z,103302.97
2019-03-27T08:24:24.766Z,103299.92
2019-03-27T08:27:17.251Z,103302.17
2019-03-27T08:30:13.540Z,103303.34
2019-03-27T08:33:05.866Z,103306.73
2019-03-27T08:35:57.990Z,103305.86
2019-03-27T08:38:50.430Z,103306.41
2019-03-27T08:41:42.760Z,103298.78
2019-03-27T08:44:35.431Z,103295.00
2019-03-27T08:47:28.889Z,103304.95
2019-03-27T08:50:21.440Z,103300.13
2019-03-27T08:53:14.490Z,103300.27
2019-03-27T08:56:06.771Z,103297.56
2019-03-27T08:58:59.390Z,103295.48
2019-03-27T09:01:52.276Z,103299.09
2019-03-27T09:04:44.794Z,103305.63
2019-03-27T09:07:37.332Z,103298.25
2019-03-27T09:10:29.670Z,103309.14
2019-03-27T09:13:21.990Z,103300.16
2019-03-27T09:16:14.249Z,103303.06
2019-03-27T09:19:06.556Z,103302.41
2019-03-27T09:21:59.334Z,103302.41
2019-03-27T09:24:51.948Z,103302.09
2019-03-27T09:27:44.363Z,103303.84
2019-03-27T09:30:36.807Z,103302.23
2019-03-27T09:33:29.024Z,103295.36
2019-03-27T09:36:21.842Z,103296.86
2019-03-27T09:39:14.718Z,103292.58
2019-03-27T09:42:06.784Z,103298.87
2019-03-27T09:44:58.982Z,103295.13
2019-03-27T09:47:51.086Z,103291.75
2019-03-27T09:50:43.577Z,103289.42
2019-03-27T09:53:36.114Z,103292.38
2019-03-27T09:56:28.697Z,103296.02
2019-03-27T09:59:21.424Z,103298.47
2019-03-27T10:02:14.437Z,103293.65
2019-03-27T10:05:07.796Z,103289.74
2019-03-27T10:08:00.691Z,103292.91
2019-03-27T10:10:53.476Z,103297.02
2019-03-27T10:13:46.088Z,103293.78
2019-03-27T10:16:38.578Z,103290.50
2019-03-27T10:19:31.462Z,103290.73
2019-03-27T10:22:23.573Z,103290.98
2019-03-27T10:25:15.974Z,103292.85
2019-03-27T10:28:08.408Z,103294.39
2019-03-27T10:31:00.869Z,103296.23
2019-03-27T10:33:53.021Z,103295.64
2019-03-27T10:36:45.298Z,103294.14
2019-03-27T10:39:37.722Z,103300.21
2019-03-27T10:42:30.333Z,103311.92
2019-03-27T10:45:22.570Z,103308.06
2019-03-27T10:48:14.838Z,103305.46
2019-03-27T10:51:07.132Z,103307.16
2019-03-27T10:53:59.348Z,103300.40
2019-03-27T10:56:51.525Z,103295.64
2019-03-27T10:59:43.965Z,103302.62
2019-03-27T11:02:36.380Z,103295.91
2019-03-27T11:05:28.918Z,103299.95
2019-03-27T11:08:21.165Z,103293.39
2019-03-27T11:11:13.598Z,103290.83
2019-03-27T11:14:06.268Z,103296.22
2019-03-27T11:16:58.790Z,103301.55
2019-03-27T11:19:51.709Z,103303.77
2019-03-27T11:22:44.927Z,103307.33
2019-03-27T11:25:37.117Z,103311.94
2019-03-27T11:28:29.706Z,103309.50
2019-03-27T11:31:22.150Z,103310.39
2019-03-27T11:34:14.288Z,103311.70
2019-03-27T11:37:06.511Z,103313.33
2019-03-27T11:39:58.716Z,103315.05
2019-03-27T11:42:51.081Z,103322.10
2019-03-27T11:45:44.186Z,103326.86
2019-03-27T11:48:36.518Z,103326.75
2019-03-27T11:51:29.533Z,103321.56
2019-03-27T11:54:22.112Z,103325.13
2019-03-27T11:57:14.464Z,103328.18
2019-03-27T12:00:09.750Z,103326.77
2019-03-27T12:03:02.059Z,103324.61
2019-03-27T12:05:55.270Z,103321.23
2019-03-27T12:08:50.658Z,103317.58
2019-03-27T12:11:41.680Z,103319.65
2019-03-27T12:14:33.881Z,103317.55
2019-03-27T12:17:26.885Z,103318.46
2019-03-27T12:20:19.987Z,103313.27
2019-03-27T12:23:12.529Z,103316.34
2019-03-27T12:26:05.776Z,103315.02
2019-03-27T12:28:59.058Z,103322.00
2019-03-27T12:31:52.076Z,103318.95
2019-03-27T12:34:44.565Z,103321.63
2019-03-27T12:37:37.980Z,103325.38
2019-03-27T12:40:31.118Z,103324.17
2019-03-27T12:43:23.847Z,103324.73
2019-03-27T12:46:17.827Z,103323.78
2019-03-27T12:49:10.511Z,103322.98
2019-03-27T12:52:05.521Z,103321.61
2019-03-27T12:54:58.249Z,103325.45
2019-03-27T12:57:50.917Z,103320.73
2019-03-27T13:00:43.767Z,103324.75
2019-03-27T13:03:36.491Z,103325.13
2019-03-27T13:06:30.142Z,103327.28
2019-03-27T13:09:22.783Z,103326.39
2019-03-27T13:12:15.533Z,103325.66
2019-03-27T13:15:08.860Z,103320.56
2019-03-27T13:18:01.459Z,103320.33
2019-03-27T13:20:54.502Z,103321.84
2019-03-27T13:23:47.134Z,103322.02
2019-03-27T13:26:39.514Z,103322.66
2019-03-27T13:29:31.816Z,103330.03
2019-03-27T13:32:24.020Z,103331.65
2019-03-27T13:35:16.263Z,103325.39
2019-03-27T13:38:08.484Z,103320.73
2019-03-27T13:41:00.644Z,103314.64
2019-03-27T13:43:52.845Z,103315.91
2019-03-27T13:46:45.059Z,103311.24
2019-03-27T13:49:38.381Z,103306.11
2019-03-27T13:52:30.725Z,103306.95
2019-03-27T13:55:22.840Z,103310.41
2019-03-27T13:58:15.254Z,103305.84
2019-03-27T14:01:09.056Z,103310.66
2019-03-27T14:04:02.426Z,103304.70
2019-03-27T14:06:54.586Z,103307.70
2019-03-27T14:09:46.728Z,103304.70
2019-03-27T14:12:39.217Z,103308.08
2019-03-27T14:15:31.652Z,103311.12
2019-03-27T14:18:23.805Z,103305.44
2019-03-27T14:21:16.188Z,103305.31
2019-03-27T14:24:09.296Z,103308.29
2019-03-27T14:27:01.842Z,103305.33
2019-03-27T14:29:54.513Z,103305.32
2019-03-27T14:32:47.140Z,103294.24
2019-03-27T14:35:39.594Z,103299.44
2019-03-27T14:38:32.250Z,103299.17
2019-03-27T14:41:24.718Z,103296.66
2019-03-27T14:44:17.770Z,103294.94
2019-03-27T14:47:10.085Z,103290.80
2019-03-27T14:50:02.269Z,103287.00
2019-03-27T14:52:54.863Z,103285.83
2019-03-27T14:55:47.106Z,103288.25
2019-03-27T14:58:39.691Z,103282.58
2019-03-27T15:01:31.888Z,103289.37
2019-03-27T15:04:24.190Z,103287.58
2019-03-27T15:07:17.560Z,103290.16
2019-03-27T15:10:11.103Z,103291.03
2019-03-27T15:13:03.361Z,103293.11
2019-03-27T15:15:56.186Z,103293.52
2019-03-27T15:18:48.569Z,103294.95
2019-03-27T15:21:40.806Z,103294.53
2019-03-27T15:24:32.966Z,103301.55
2019-03-27T15:27:25.555Z,103297.19
2019-03-27T15:30:18.437Z,103299.20
2019-03-27T15:33:11.466Z,103297.85
2019-03-27T15:36:03.837Z,103297.51
2019-03-27T15:38:56.328Z,103291.80
2019-03-27T15:41:48.624Z,103290.77
2019-03-27T15:44:41.669Z,103292.58
2019-03-27T15:47:34.702Z,103282.20
2019-03-27T15:50:26.827Z,103287.08
2019-03-27T15:53:19.669Z,103297.20
2019-03-27T15:56:12.450Z,103294.13
2019-03-27T15:59:04.953Z,103293.72
2019-03-27T16:01:58.027Z,103292.20
2019-03-27T16:04:51.580Z,103290.04
2019-03-27T16:07:44.075Z,103299.02
2019-03-27T16:10:36.563Z,103300.50
2019-03-27T16:13:28.987Z,103306.26
2019-03-27T16:16:21.192Z,103307.64
2019-03-27T16:19:13.327Z,103314.83
2019-03-27T16:22:07.102Z,103310.24
2019-03-27T16:25:00.121Z,103311.42
2019-03-27T16:27:53.905Z,103316.81
2019-03-27T16:30:46.400Z,103317.43
2019-03-27T16:33:38.865Z,103322.23
2019-03-27T16:36:30.983Z,103326.11
2019-03-27T16:39:23.543Z,103329.31
2019-03-27T16:42:16.044Z,103333.67
2019-03-27T16:45:08.974Z,103330.77
2019-03-27T16:48:01.110Z,103335.56
2019-03-27T16:50:53.312Z,103334.52
2019-03-27T16:53:45.828Z,103338.17
2019-03-27T16:56:38.465Z,103338.60
2019-03-27T16:59:32.472Z,103340.22
2019-03-27T17:02:24.937Z,103339.59
2019-03-27T17:05:18.231Z,103347.08
2019-03-27T17:08:10.439Z,103345.73
2019-03-27T17:11:03.874Z,103349.67
2019-03-27T17:13:56.185Z,103348.22
2019-03-27T17:16:48.349Z,103353.54
2019-03-27T17:19:40.867Z,103347.70
2019-03-27T17:22:33.957Z,103346.98
2019-03-27T17:25:27.258Z,103348.61
2019-03-27T17:28:19.483Z,103349.15
2019-03-27T17:31:11.948Z,103349.48
2019-03-27T17:34:04.320Z,103350.45
2019-03-27T17:36:57.427Z,103357.31
2019-03-27T17:39:49.842Z,103349.31
2019-03-27T17:42:42.813Z,103354.47
2019-03-27T17:45:35.535Z,103353.91
2019-03-27T17:48:27.952Z,103354.36
2019-03-27T17:51:20.950Z,103352.92
2019-03-27T17:54:20.495Z,103354.13
2019-03-27T17:57:07.468Z,103350.83
2019-03-27T18:00:00.009Z,103350.43
2019-03-27T18:02:52.339Z,103351.07
2019-03-27T18:05:44.568Z,103356.61
2019-03-27T18:08:36.759Z,103360.88
2019-03-27T18:11:29.175Z,103362.22
2019-03-27T18:14:21.611Z,103356.13
2019-03-27T18:17:14.814Z,103369.11
2019-03-27T18:20:07.968Z,103369.45
2019-03-27T18:23:00.531Z,103376.22
2019-03-27T18:25:52.788Z,103381.63
2019-03-27T18:28:45.976Z,103383.94
2019-03-27T18:31:38.616Z,103381.71
2019-03-27T18:34:30.750Z,103384.94
2019-03-27T18:37:23.805Z,103388.13
2019-03-27T18:40:16.233Z,103391.59
2019-03-27T18:43:09.667Z,103391.42
2019-03-27T18:46:01.862Z,103388.04
2019-03-27T18:48:54.175Z,103391.10
2019-03-27T18:51:46.738Z,103385.67
2019-03-27T18:54:38.963Z,103388.47
2019-03-27T18:57:31.498Z,103394.59
2019-03-27T19:00:24.862Z,103392.13
2019-03-27T19:03:17.021Z,103391.30
2019-03-27T19:06:09.409Z,103398.26
2019-03-27T19:09:01.560Z,103400.64
2019-03-27T19:11:56.717Z,103408.64
2019-03-27T19:14:48.982Z,103414.16
2019-03-27T19:17:41.481Z,103415.79
2019-03-27T19:20:34.690Z,103411.23
2019-03-27T19:23:27.099Z,103412.74
2019-03-27T19:26:19.550Z,103420.74
2019-03-27T19:29:11.729Z,103423.92
2019-03-27T19:32:04.180Z,103418.42
2019-03-27T19:34:56.672Z,103421.38
2019-03-27T19:37:48.910Z,103430.57
2019-03-27T19:40:41.456Z,103432.07
2019-03-27T19:43:33.929Z,103433.47
2019-03-27T19:46:26.493Z,103438.19
2019-03-27T19:49:19.185Z,103433.52
2019-03-27T19:52:11.333Z,103430.30
2019-03-27T19:55:03.725Z,103436.14
2019-03-27T19:57:56.207Z,103429.13
2019-03-27T20:00:48.454Z,103431.58
2019-03-27T20:03:40.813Z,103435.18
2019-03-27T20:06:33.126Z,103439.02
2019-03-27T20:09:25.564Z,103438.38
2019-03-27T20:12:17.749Z,103444.92
2019-03-27T20:15:12.793Z,103440.03
2019-03-27T20:18:04.407Z,103441.72
2019-03-27T20:20:57.643Z,103437.88
2019-03-27T20:23:49.972Z,103442.87
2019-03-27T20:26:42.519Z,103445.52
2019-03-27T20:29:35.518Z,103443.61
2019-03-27T20:32:27.996Z,103440.03
2019-03-27T20:35:22.941Z,103444.20
2019-03-27T20:38:15.846Z,103445.64
2019-03-27T20:41:08.048Z,103438.84
2019-03-27T20:44:01.224Z,103436.83
2019-03-27T20:46:53.432Z,103435.47
2019-03-27T20:49:45.890Z,103436.05
2019-03-27T20:52:38.085Z,103432.45
2019-03-27T20:55:31.190Z,103433.22
2019-03-27T20:58:24.025Z,103439.31
2019-03-27T21:01:16.490Z,103442.74
2019-03-27T21:04:08.722Z,103440.09
2019-03-27T21:07:01.294Z,103437.48
2019-03-27T21:09:53.945Z,103438.11
2019-03-27T21:12:46.795Z,103439.11
2019-03-27T21:15:39.449Z,103444.63
2019-03-27T21:18:31.693Z,103450.23
2019-03-27T21:21:24.233Z,103457.37
2019-03-27T21:24:16.646Z,103460.84
2019-03-27T21:27:09.102Z,103460.41
2019-03-27T21:30:01.335Z,103461.83
2019-03-27T21:32:53.463Z,103461.11
2019-03-27T21:35:45.599Z,103461.94
2019-03-27T21:38:37.955Z,103464.70
2019-03-27T21:41:30.324Z,103464.19
2019-03-27T21:44:22.859Z,103464.58
2019-03-27T21:47:15.900Z,103463.97
2019-03-27T21:50:09.061Z,103464.12
2019-03-27T21:53:01.482Z,103461.25
2019-03-27T21:55:54.266Z,103457.92
2019-03-27T21:58:46.370Z,103457.25
2019-03-27T22:01:38.625Z,103462.42
2019-03-27T22:04:30.740Z,103457.22
2019-03-27T22:07:22.908Z,103463.72
2019-03-27T22:10:15.300Z,103466.95
2019-03-27T22:13:07.439Z,103461.44
2019-03-27T22:15:59.759Z,103464.72
2019-03-27T22:18:52.076Z,103453.98
2019-03-27T22:21:44.300Z,103458.05
2019-03-27T22:24:36.809Z,103470.80
2019-03-27T22:27:29.394Z,103477.69
2019-03-27T22:30:21.822Z,103471.48
2019-03-27T22:33:14.080Z,103474.53
2019-03-27T22:36:07.607Z,103479.56
2019-03-27T22:39:00.137Z,103486.80
2019-03-27T22:41:54.328Z,103489.98
2019-03-27T22:44:46.369Z,103486.89
2019-03-27T22:47:38.628Z,103488.95
2019-03-27T22:50:31.449Z,103491.81
2019-03-27T22:53:23.634Z,103494.20
2019-03-27T22:56:16.051Z,103491.70
2019-03-27T22:59:08.530Z,103495.03
2019-03-27T23:02:01.003Z,103494.48
2019-03-27T23:04:53.180Z,103493.95
2019-03-27T23:07:45.631Z,103493.64
2019-03-27T23:10:38.084Z,103492.66
2019-03-27T23:13:31.585Z,103487.66
2019-03-27T23:16:24.042Z,103494.03
2019-03-27T23:19:16.440Z,103492.53
2019-03-27T23:22:08.582Z,103494.83
2019-03-27T23:25:00.915Z,103491.72
2019-03-27T23:27:54.248Z,103487.77
2019-03-27T23:30:47.031Z,103486.07
2019-03-27T23:33:39.351Z,103488.88
2019-03-27T23:36:31.970Z,103484.58
2019-03-27T23:39:24.415Z,103488.72
2019-03-27T23:42:16.792Z,103492.30
2019-03-27T23:45:10.478Z,103490.28
2019-03-27T23:48:03.285Z,103492.53
2019-03-27T23:50:55.485Z,103490.91
2019-03-27T23:53:47.717Z,103496.84
2019-03-27T23:56:40.104Z,103495.38
2019-03-27T23:59:32.567Z,103494.89
